sensor_id;sensor_type;location;lat;lon;timestamp;temperature;humidity
22290;DHT22;11313;50.116;8.424;2022-11-15T00:00:04;23.10;52.20
22290;DHT22;11313;50.116;8.424;2022-11-15T00:02:30;23.10;52.20
22290;DHT22;11313;50.116;8.424;2022-11-15T00:04:55;23.10;52.20
22290;DHT22;11313;50.116;8.424;2022-11-15T00:07:21;23.10;52.80
22290;DHT22;11313;50.116;8.424;2022-11-15T00:09:46;23.10;52.20
22290;DHT22;11313;50.116;8.424;2022-11-15T00:12:12;23.10;52.20
22290;DHT22;11313;50.116;8.424;2022-11-15T00:14:37;23.10;52.20
22290;DHT22;11313;50.116;8.424;2022-11-15T00:17:03;23.10;52.20
22290;DHT22;11313;50.116;8.424;2022-11-15T00:19:28;23.10;52.20
22290;DHT22;11313;50.116;8.424;2022-11-15T00:21:54;23.10;52.30
22290;DHT22;11313;50.116;8.424;2022-11-15T00:24:19;23.10;52.20
22290;DHT22;11313;50.116;8.424;2022-11-15T00:26:45;23.10;52.20
22290;DHT22;11313;50.116;8.424;2022-11-15T00:29:10;23.10;52.20
22290;DHT22;11313;50.116;8.424;2022-11-15T00:31:36;23.10;52.20
22290;DHT22;11313;50.116;8.424;2022-11-15T00:34:01;23.10;52.20
22290;DHT22;11313;50.116;8.424;2022-11-15T00:36:27;23.10;52.20
22290;DHT22;11313;50.116;8.424;2022-11-15T00:38:52;23.10;52.20
22290;DHT22;11313;50.116;8.424;2022-11-15T00:41:18;23.10;52.20
22290;DHT22;11313;50.116;8.424;2022-11-15T00:43:43;23.10;52.20
22290;DHT22;11313;50.116;8.424;2022-11-15T00:46:09;23.10;52.20
22290;DHT22;11313;50.116;8.424;2022-11-15T00:48:35;23.10;52.20
22290;DHT22;11313;50.116;8.424;2022-11-15T00:51:01;23.10;52.20
22290;DHT22;11313;50.116;8.424;2022-11-15T00:53:26;23.10;52.10
22290;DHT22;11313;50.116;8.424;2022-11-15T00:55:52;23.10;52.10
22290;DHT22;11313;50.116;8.424;2022-11-15T00:58:18;23.10;52.10
22290;DHT22;11313;50.116;8.424;2022-11-15T01:00:43;23.10;52.10
22290;DHT22;11313;50.116;8.424;2022-11-15T01:03:09;23.20;52.10
22290;DHT22;11313;50.116;8.424;2022-11-15T01:05:37;23.20;52.10
22290;DHT22;11313;50.116;8.424;2022-11-15T01:08:03;23.20;52.10
22290;DHT22;11313;50.116;8.424;2022-11-15T01:10:28;23.20;52.10
22290;DHT22;11313;50.116;8.424;2022-11-15T01:12:54;23.20;52.10
22290;DHT22;11313;50.116;8.424;2022-11-15T01:15:19;23.20;52.10
22290;DHT22;11313;50.116;8.424;2022-11-15T01:17:45;23.20;52.00
22290;DHT22;11313;50.116;8.424;2022-11-15T01:20:11;23.20;52.00
22290;DHT22;11313;50.116;8.424;2022-11-15T01:22:36;23.20;52.00
22290;DHT22;11313;50.116;8.424;2022-11-15T01:25:02;23.20;51.90
22290;DHT22;11313;50.116;8.424;2022-11-15T01:27:28;23.30;52.00
22290;DHT22;11313;50.116;8.424;2022-11-15T01:29:53;23.30;52.00
22290;DHT22;11313;50.116;8.424;2022-11-15T01:32:19;23.20;51.90
22290;DHT22;11313;50.116;8.424;2022-11-15T01:34:44;23.30;51.90
22290;DHT22;11313;50.116;8.424;2022-11-15T01:37:09;23.30;51.90
22290;DHT22;11313;50.116;8.424;2022-11-15T01:39:35;23.30;51.90
22290;DHT22;11313;50.116;8.424;2022-11-15T01:42:01;23.30;51.90
22290;DHT22;11313;50.116;8.424;2022-11-15T01:47:15;23.30;51.90
22290;DHT22;11313;50.116;8.424;2022-11-15T01:52:22;23.30;51.90
22290;DHT22;11313;50.116;8.424;2022-11-15T01:54:53;23.30;51.90
22290;DHT22;11313;50.116;8.424;2022-11-15T01:57:20;23.30;51.90
22290;DHT22;11313;50.116;8.424;2022-11-15T01:59:46;23.30;51.90
22290;DHT22;11313;50.116;8.424;2022-11-15T02:02:12;23.30;51.90
22290;DHT22;11313;50.116;8.424;2022-11-15T02:04:46;23.30;51.90
22290;DHT22;11313;50.116;8.424;2022-11-15T02:07:17;23.30;51.90
22290;DHT22;11313;50.116;8.424;2022-11-15T02:09:43;23.30;51.90
22290;DHT22;11313;50.116;8.424;2022-11-15T02:12:10;23.30;51.80
22290;DHT22;11313;50.116;8.424;2022-11-15T02:14:38;23.30;51.80
22290;DHT22;11313;50.116;8.424;2022-11-15T02:17:16;23.30;51.90
22290;DHT22;11313;50.116;8.424;2022-11-15T02:25:49;23.30;51.80
22290;DHT22;11313;50.116;8.424;2022-11-15T02:31:03;23.30;51.80
22290;DHT22;11313;50.116;8.424;2022-11-15T02:42:14;23.30;51.80
22290;DHT22;11313;50.116;8.424;2022-11-15T02:45:04;23.30;51.80
22290;DHT22;11313;50.116;8.424;2022-11-15T02:47:35;23.30;51.90
22290;DHT22;11313;50.116;8.424;2022-11-15T02:50:08;23.30;51.90
22290;DHT22;11313;50.116;8.424;2022-11-15T02:52:34;23.30;51.90
22290;DHT22;11313;50.116;8.424;2022-11-15T02:55:00;23.30;51.90
22290;DHT22;11313;50.116;8.424;2022-11-15T02:57:51;23.30;51.90
22290;DHT22;11313;50.116;8.424;2022-11-15T03:00:18;23.30;51.80
22290;DHT22;11313;50.116;8.424;2022-11-15T03:03:08;23.30;51.90
22290;DHT22;11313;50.116;8.424;2022-11-15T03:05:43;23.30;51.90
22290;DHT22;11313;50.116;8.424;2022-11-15T03:08:28;23.30;51.90
22290;DHT22;11313;50.116;8.424;2022-11-15T03:11:01;23.30;51.90
22290;DHT22;11313;50.116;8.424;2022-11-15T03:13:47;23.30;51.90
22290;DHT22;11313;50.116;8.424;2022-11-15T03:16:36;23.20;51.90
22290;DHT22;11313;50.116;8.424;2022-11-15T03:19:12;23.20;51.90
22290;DHT22;11313;50.116;8.424;2022-11-15T03:21:39;23.30;52.00
22290;DHT22;11313;50.116;8.424;2022-11-15T03:24:07;23.30;52.00
22290;DHT22;11313;50.116;8.424;2022-11-15T03:26:35;23.20;51.90
22290;DHT22;11313;50.116;8.424;2022-11-15T03:29:08;23.20;51.90
22290;DHT22;11313;50.116;8.424;2022-11-15T03:31:38;23.20;51.90
22290;DHT22;11313;50.116;8.424;2022-11-15T03:36:51;23.20;51.90
22290;DHT22;11313;50.116;8.424;2022-11-15T03:39:17;23.20;52.00
22290;DHT22;11313;50.116;8.424;2022-11-15T03:41:48;23.20;52.00
22290;DHT22;11313;50.116;8.424;2022-11-15T03:46:47;23.20;52.00
22290;DHT22;11313;50.116;8.424;2022-11-15T03:49:21;23.20;52.00
22290;DHT22;11313;50.116;8.424;2022-11-15T03:51:48;23.20;52.00
22290;DHT22;11313;50.116;8.424;2022-11-15T03:54:13;23.20;52.00
22290;DHT22;11313;50.116;8.424;2022-11-15T03:56:39;23.20;52.00
22290;DHT22;11313;50.116;8.424;2022-11-15T03:59:04;23.20;52.00
22290;DHT22;11313;50.116;8.424;2022-11-15T04:01:30;23.20;52.00
22290;DHT22;11313;50.116;8.424;2022-11-15T04:03:55;23.20;52.00
22290;DHT22;11313;50.116;8.424;2022-11-15T04:06:21;23.20;52.00
22290;DHT22;11313;50.116;8.424;2022-11-15T04:08:46;23.20;52.00
22290;DHT22;11313;50.116;8.424;2022-11-15T04:11:12;23.20;52.00
22290;DHT22;11313;50.116;8.424;2022-11-15T04:13:37;23.20;52.00
22290;DHT22;11313;50.116;8.424;2022-11-15T04:16:03;23.20;52.00
22290;DHT22;11313;50.116;8.424;2022-11-15T04:18:28;23.20;52.00
22290;DHT22;11313;50.116;8.424;2022-11-15T04:20:54;23.20;52.00
22290;DHT22;11313;50.116;8.424;2022-11-15T04:23:38;23.20;52.00
22290;DHT22;11313;50.116;8.424;2022-11-15T04:26:23;23.20;52.00
22290;DHT22;11313;50.116;8.424;2022-11-15T04:28:49;23.20;52.00
22290;DHT22;11313;50.116;8.424;2022-11-15T04:31:33;23.20;52.00
22290;DHT22;11313;50.116;8.424;2022-11-15T04:33:59;23.20;52.00
22290;DHT22;11313;50.116;8.424;2022-11-15T04:36:25;23.20;52.00
22290;DHT22;11313;50.116;8.424;2022-11-15T04:39:09;23.20;52.00
22290;DHT22;11313;50.116;8.424;2022-11-15T04:41:35;23.20;52.00
22290;DHT22;11313;50.116;8.424;2022-11-15T04:44:01;23.30;52.00
22290;DHT22;11313;50.116;8.424;2022-11-15T04:46:26;23.30;52.00
22290;DHT22;11313;50.116;8.424;2022-11-15T04:48:52;23.30;52.00
22290;DHT22;11313;50.116;8.424;2022-11-15T04:51:18;23.30;52.00
22290;DHT22;11313;50.116;8.424;2022-11-15T04:53:44;23.30;52.00
22290;DHT22;11313;50.116;8.424;2022-11-15T04:56:09;23.30;52.00
22290;DHT22;11313;50.116;8.424;2022-11-15T04:58:35;23.30;51.90
22290;DHT22;11313;50.116;8.424;2022-11-15T05:01:11;23.30;52.00
22290;DHT22;11313;50.116;8.424;2022-11-15T05:03:37;23.30;51.90
22290;DHT22;11313;50.116;8.424;2022-11-15T05:06:21;23.30;51.90
22290;DHT22;11313;50.116;8.424;2022-11-15T05:08:46;23.30;51.90
22290;DHT22;11313;50.116;8.424;2022-11-15T05:11:12;23.30;51.90
22290;DHT22;11313;50.116;8.424;2022-11-15T05:13:37;23.30;51.90
22290;DHT22;11313;50.116;8.424;2022-11-15T05:16:03;23.30;51.90
22290;DHT22;11313;50.116;8.424;2022-11-15T05:18:29;23.30;51.90
22290;DHT22;11313;50.116;8.424;2022-11-15T05:20:54;23.30;51.90
22290;DHT22;11313;50.116;8.424;2022-11-15T05:23:20;23.30;51.90
22290;DHT22;11313;50.116;8.424;2022-11-15T05:25:45;23.30;51.80
22290;DHT22;11313;50.116;8.424;2022-11-15T05:28:10;23.40;51.90
22290;DHT22;11313;50.116;8.424;2022-11-15T05:30:36;23.40;51.90
22290;DHT22;11313;50.116;8.424;2022-11-15T05:33:01;23.30;51.80
22290;DHT22;11313;50.116;8.424;2022-11-15T05:35:34;23.30;51.90
22290;DHT22;11313;50.116;8.424;2022-11-15T05:38:02;23.30;51.80
22290;DHT22;11313;50.116;8.424;2022-11-15T05:40:28;23.40;51.90
22290;DHT22;11313;50.116;8.424;2022-11-15T05:42:54;23.40;51.80
22290;DHT22;11313;50.116;8.424;2022-11-15T05:45:20;23.40;51.90
22290;DHT22;11313;50.116;8.424;2022-11-15T05:47:46;23.40;51.90
22290;DHT22;11313;50.116;8.424;2022-11-15T05:50:15;23.40;52.50
22290;DHT22;11313;50.116;8.424;2022-11-15T05:52:42;23.40;51.80
22290;DHT22;11313;50.116;8.424;2022-11-15T05:55:09;23.40;51.80
22290;DHT22;11313;50.116;8.424;2022-11-15T05:57:35;23.40;51.80
22290;DHT22;11313;50.116;8.424;2022-11-15T06:00:01;23.40;51.90
22290;DHT22;11313;50.116;8.424;2022-11-15T06:02:28;23.40;51.80
22290;DHT22;11313;50.116;8.424;2022-11-15T06:04:53;23.40;51.90
22290;DHT22;11313;50.116;8.424;2022-11-15T06:07:18;23.40;51.90
22290;DHT22;11313;50.116;8.424;2022-11-15T06:09:44;23.40;51.90
22290;DHT22;11313;50.116;8.424;2022-11-15T06:12:09;23.40;51.90
22290;DHT22;11313;50.116;8.424;2022-11-15T06:14:35;23.40;52.00
22290;DHT22;11313;50.116;8.424;2022-11-15T06:17:00;23.40;52.00
22290;DHT22;11313;50.116;8.424;2022-11-15T06:19:26;23.40;52.00
22290;DHT22;11313;50.116;8.424;2022-11-15T06:21:51;23.40;52.20
22290;DHT22;11313;50.116;8.424;2022-11-15T06:24:17;23.40;52.00
22290;DHT22;11313;50.116;8.424;2022-11-15T06:26:42;23.40;52.00
22290;DHT22;11313;50.116;8.424;2022-11-15T06:29:08;23.40;52.00
22290;DHT22;11313;50.116;8.424;2022-11-15T06:31:34;23.40;52.10
22290;DHT22;11313;50.116;8.424;2022-11-15T06:33:59;23.40;52.10
22290;DHT22;11313;50.116;8.424;2022-11-15T06:36:25;23.40;52.10
22290;DHT22;11313;50.116;8.424;2022-11-15T06:38:50;23.40;52.20
22290;DHT22;11313;50.116;8.424;2022-11-15T06:41:16;23.40;52.40
22290;DHT22;11313;50.116;8.424;2022-11-15T06:43:42;23.40;52.50
22290;DHT22;11313;50.116;8.424;2022-11-15T06:46:08;23.40;52.50
22290;DHT22;11313;50.116;8.424;2022-11-15T06:48:35;23.40;52.70
22290;DHT22;11313;50.116;8.424;2022-11-15T06:51:02;23.40;52.60
22290;DHT22;11313;50.116;8.424;2022-11-15T06:53:29;23.40;52.70
22290;DHT22;11313;50.116;8.424;2022-11-15T06:56:00;23.40;52.70
22290;DHT22;11313;50.116;8.424;2022-11-15T06:58:26;23.40;52.80
22290;DHT22;11313;50.116;8.424;2022-11-15T07:00:51;23.40;52.80
22290;DHT22;11313;50.116;8.424;2022-11-15T07:03:17;23.40;52.90
22290;DHT22;11313;50.116;8.424;2022-11-15T07:05:49;23.40;52.80
22290;DHT22;11313;50.116;8.424;2022-11-15T07:08:15;23.40;52.90
22290;DHT22;11313;50.116;8.424;2022-11-15T07:10:40;23.40;52.90
22290;DHT22;11313;50.116;8.424;2022-11-15T07:13:06;23.40;52.90
22290;DHT22;11313;50.116;8.424;2022-11-15T07:15:31;23.40;52.90
22290;DHT22;11313;50.116;8.424;2022-11-15T07:18:00;23.40;52.90
22290;DHT22;11313;50.116;8.424;2022-11-15T07:20:26;23.40;52.90
22290;DHT22;11313;50.116;8.424;2022-11-15T07:22:59;23.30;52.90
22290;DHT22;11313;50.116;8.424;2022-11-15T07:25:25;23.30;52.90
22290;DHT22;11313;50.116;8.424;2022-11-15T07:27:57;23.30;52.90
22290;DHT22;11313;50.116;8.424;2022-11-15T07:30:24;23.30;52.90
22290;DHT22;11313;50.116;8.424;2022-11-15T07:32:56;23.30;52.90
22290;DHT22;11313;50.116;8.424;2022-11-15T07:35:23;23.30;52.90
22290;DHT22;11313;50.116;8.424;2022-11-15T07:38:00;23.30;52.90
22290;DHT22;11313;50.116;8.424;2022-11-15T07:40:29;23.30;52.90
22290;DHT22;11313;50.116;8.424;2022-11-15T07:43:02;23.30;52.90
22290;DHT22;11313;50.116;8.424;2022-11-15T07:45:28;23.30;53.50
22290;DHT22;11313;50.116;8.424;2022-11-15T07:47:54;23.30;52.90
22290;DHT22;11313;50.116;8.424;2022-11-15T07:50:23;23.30;52.90
22290;DHT22;11313;50.116;8.424;2022-11-15T07:52:56;23.30;52.90
22290;DHT22;11313;50.116;8.424;2022-11-15T07:55:23;23.30;52.90
22290;DHT22;11313;50.116;8.424;2022-11-15T07:57:48;23.30;52.90
22290;DHT22;11313;50.116;8.424;2022-11-15T08:00:14;23.30;52.90
22290;DHT22;11313;50.116;8.424;2022-11-15T08:02:40;23.30;52.90
22290;DHT22;11313;50.116;8.424;2022-11-15T08:05:06;23.30;53.00
22290;DHT22;11313;50.116;8.424;2022-11-15T08:07:32;23.30;52.90
22290;DHT22;11313;50.116;8.424;2022-11-15T08:09:58;23.30;52.90
22290;DHT22;11313;50.116;8.424;2022-11-15T08:12:24;23.30;52.90
22290;DHT22;11313;50.116;8.424;2022-11-15T08:14:49;23.20;52.90
22290;DHT22;11313;50.116;8.424;2022-11-15T08:17:15;23.30;52.90
22290;DHT22;11313;50.116;8.424;2022-11-15T08:19:40;23.20;52.90
22290;DHT22;11313;50.116;8.424;2022-11-15T08:22:07;23.20;52.90
22290;DHT22;11313;50.116;8.424;2022-11-15T08:24:32;23.20;52.90
22290;DHT22;11313;50.116;8.424;2022-11-15T08:26:59;23.20;52.90
22290;DHT22;11313;50.116;8.424;2022-11-15T08:29:24;23.20;52.90
22290;DHT22;11313;50.116;8.424;2022-11-15T08:31:50;23.20;52.90
22290;DHT22;11313;50.116;8.424;2022-11-15T08:34:15;23.20;52.90
22290;DHT22;11313;50.116;8.424;2022-11-15T08:36:41;23.20;52.90
22290;DHT22;11313;50.116;8.424;2022-11-15T08:39:10;23.20;52.90
22290;DHT22;11313;50.116;8.424;2022-11-15T08:41:37;23.20;52.90
22290;DHT22;11313;50.116;8.424;2022-11-15T08:44:02;23.20;52.90
22290;DHT22;11313;50.116;8.424;2022-11-15T08:46:28;23.20;52.90
22290;DHT22;11313;50.116;8.424;2022-11-15T08:48:54;23.20;52.90
22290;DHT22;11313;50.116;8.424;2022-11-15T08:51:19;23.20;52.90
22290;DHT22;11313;50.116;8.424;2022-11-15T08:53:44;23.10;52.90
22290;DHT22;11313;50.116;8.424;2022-11-15T08:56:12;23.10;52.90
22290;DHT22;11313;50.116;8.424;2022-11-15T08:58:38;23.20;52.90
22290;DHT22;11313;50.116;8.424;2022-11-15T09:01:04;23.20;52.90
22290;DHT22;11313;50.116;8.424;2022-11-15T09:03:30;23.20;52.90
22290;DHT22;11313;50.116;8.424;2022-11-15T09:05:57;23.20;52.90
22290;DHT22;11313;50.116;8.424;2022-11-15T09:08:23;23.20;52.90
22290;DHT22;11313;50.116;8.424;2022-11-15T09:10:49;23.20;52.90
22290;DHT22;11313;50.116;8.424;2022-11-15T09:13:15;23.20;52.90
22290;DHT22;11313;50.116;8.424;2022-11-15T09:15:40;23.20;52.90
22290;DHT22;11313;50.116;8.424;2022-11-15T09:18:06;23.20;52.90
22290;DHT22;11313;50.116;8.424;2022-11-15T09:20:31;23.20;52.90
22290;DHT22;11313;50.116;8.424;2022-11-15T09:23:04;23.10;52.90
22290;DHT22;11313;50.116;8.424;2022-11-15T09:25:30;23.20;52.90
22290;DHT22;11313;50.116;8.424;2022-11-15T09:27:55;23.10;52.90
22290;DHT22;11313;50.116;8.424;2022-11-15T09:30:22;23.10;52.90
22290;DHT22;11313;50.116;8.424;2022-11-15T09:32:48;23.20;52.90
22290;DHT22;11313;50.116;8.424;2022-11-15T09:35:13;23.20;52.90
22290;DHT22;11313;50.116;8.424;2022-11-15T09:37:39;23.20;52.90
22290;DHT22;11313;50.116;8.424;2022-11-15T09:40:04;23.20;52.90
22290;DHT22;11313;50.116;8.424;2022-11-15T09:45:34;23.20;52.80
22290;DHT22;11313;50.116;8.424;2022-11-15T09:51:19;23.20;52.80
22290;DHT22;11313;50.116;8.424;2022-11-15T09:53:57;23.20;52.80
22290;DHT22;11313;50.116;8.424;2022-11-15T09:56:28;23.20;52.80
22290;DHT22;11313;50.116;8.424;2022-11-15T10:04:29;23.20;52.70
22290;DHT22;11313;50.116;8.424;2022-11-15T10:07:14;23.30;52.70
22290;DHT22;11313;50.116;8.424;2022-11-15T10:10:09;23.30;52.70
22290;DHT22;11313;50.116;8.424;2022-11-15T10:12:37;23.30;52.60
22290;DHT22;11313;50.116;8.424;2022-11-15T10:15:06;23.30;52.60
22290;DHT22;11313;50.116;8.424;2022-11-15T10:17:59;23.30;52.60
22290;DHT22;11313;50.116;8.424;2022-11-15T10:20:30;23.30;52.60
22290;DHT22;11313;50.116;8.424;2022-11-15T10:23:05;23.30;52.60
22290;DHT22;11313;50.116;8.424;2022-11-15T10:25:34;23.40;52.60
22290;DHT22;11313;50.116;8.424;2022-11-15T10:30:38;23.40;52.50
22290;DHT22;11313;50.116;8.424;2022-11-15T10:36:21;23.40;52.50
22290;DHT22;11313;50.116;8.424;2022-11-15T10:46:28;23.40;52.40
22290;DHT22;11313;50.116;8.424;2022-11-15T10:49:14;23.40;52.40
22290;DHT22;11313;50.116;8.424;2022-11-15T10:51:49;23.40;52.40
22290;DHT22;11313;50.116;8.424;2022-11-15T10:56:52;23.40;52.40
22290;DHT22;11313;50.116;8.424;2022-11-15T10:59:26;23.40;52.40
22290;DHT22;11313;50.116;8.424;2022-11-15T11:01:53;23.40;52.40
22290;DHT22;11313;50.116;8.424;2022-11-15T11:04:18;23.40;52.40
22290;DHT22;11313;50.116;8.424;2022-11-15T11:06:58;23.40;52.30
22290;DHT22;11313;50.116;8.424;2022-11-15T11:09:33;23.50;52.40
22290;DHT22;11313;50.116;8.424;2022-11-15T11:12:00;23.40;52.30
22290;DHT22;11313;50.116;8.424;2022-11-15T11:14:29;23.40;52.30
22290;DHT22;11313;50.116;8.424;2022-11-15T11:20:02;23.50;52.40
22290;DHT22;11313;50.116;8.424;2022-11-15T11:36:44;23.40;52.40
22290;DHT22;11313;50.116;8.424;2022-11-15T11:39:43;23.40;52.30
22290;DHT22;11313;50.116;8.424;2022-11-15T11:42:36;23.50;52.40
22290;DHT22;11313;50.116;8.424;2022-11-15T11:45:14;23.40;52.30
22290;DHT22;11313;50.116;8.424;2022-11-15T11:47:58;23.50;52.40
22290;DHT22;11313;50.116;8.424;2022-11-15T11:50:27;23.40;52.30
22290;DHT22;11313;50.116;8.424;2022-11-15T11:52:59;23.50;52.40
22290;DHT22;11313;50.116;8.424;2022-11-15T11:55:32;23.40;52.30
22290;DHT22;11313;50.116;8.424;2022-11-15T12:01:12;23.40;52.30
22290;DHT22;11313;50.116;8.424;2022-11-15T12:06:41;23.50;52.40
22290;DHT22;11313;50.116;8.424;2022-11-15T12:12:23;23.40;52.30
22290;DHT22;11313;50.116;8.424;2022-11-15T12:14:53;23.50;52.40
22290;DHT22;11313;50.116;8.424;2022-11-15T12:17:28;23.40;52.40
22290;DHT22;11313;50.116;8.424;2022-11-15T12:20:03;23.40;52.40
22290;DHT22;11313;50.116;8.424;2022-11-15T12:22:39;23.40;52.30
22290;DHT22;11313;50.116;8.424;2022-11-15T12:25:27;23.40;52.30
22290;DHT22;11313;50.116;8.424;2022-11-15T12:30:50;23.40;52.40
22290;DHT22;11313;50.116;8.424;2022-11-15T12:36:01;23.40;52.40
22290;DHT22;11313;50.116;8.424;2022-11-15T12:38:50;23.40;52.40
22290;DHT22;11313;50.116;8.424;2022-11-15T12:41:18;23.40;52.40
22290;DHT22;11313;50.116;8.424;2022-11-15T12:43:45;23.40;52.40
22290;DHT22;11313;50.116;8.424;2022-11-15T12:46:59;23.40;52.40
22290;DHT22;11313;50.116;8.424;2022-11-15T12:49:01;23.40;52.40
22290;DHT22;11313;50.116;8.424;2022-11-15T13:02:55;23.40;52.50
22290;DHT22;11313;50.116;8.424;2022-11-15T13:17:46;23.40;52.60
22290;DHT22;11313;50.116;8.424;2022-11-15T13:22:46;23.30;52.50
22290;DHT22;11313;50.116;8.424;2022-11-15T13:25:57;23.30;52.60
22290;DHT22;11313;50.116;8.424;2022-11-15T13:30:59;23.40;52.60
22290;DHT22;11313;50.116;8.424;2022-11-15T13:33:33;23.40;52.60
22290;DHT22;11313;50.116;8.424;2022-11-15T13:36:01;23.30;52.60
22290;DHT22;11313;50.116;8.424;2022-11-15T13:40:55;23.30;52.60
22290;DHT22;11313;50.116;8.424;2022-11-15T13:46:11;23.30;52.60
22290;DHT22;11313;50.116;8.424;2022-11-15T13:48:37;23.30;52.70
22290;DHT22;11313;50.116;8.424;2022-11-15T13:51:15;23.30;52.60
22290;DHT22;11313;50.116;8.424;2022-11-15T13:53:46;23.30;52.60
22290;DHT22;11313;50.116;8.424;2022-11-15T13:56:14;23.30;52.70
22290;DHT22;11313;50.116;8.424;2022-11-15T13:58:40;23.30;52.70
22290;DHT22;11313;50.116;8.424;2022-11-15T14:01:06;23.30;52.70
22290;DHT22;11313;50.116;8.424;2022-11-15T14:03:34;23.30;52.70
22290;DHT22;11313;50.116;8.424;2022-11-15T14:06:09;23.30;52.80
22290;DHT22;11313;50.116;8.424;2022-11-15T14:08:42;23.30;52.70
22290;DHT22;11313;50.116;8.424;2022-11-15T14:11:18;23.30;52.80
22290;DHT22;11313;50.116;8.424;2022-11-15T14:14:13;23.30;52.70
22290;DHT22;11313;50.116;8.424;2022-11-15T14:16:55;23.30;52.80
22290;DHT22;11313;50.116;8.424;2022-11-15T14:22:24;23.30;52.80
22290;DHT22;11313;50.116;8.424;2022-11-15T14:25:30;23.30;52.80
22290;DHT22;11313;50.116;8.424;2022-11-15T14:30:53;23.20;52.80
22290;DHT22;11313;50.116;8.424;2022-11-15T14:33:31;23.20;52.80
22290;DHT22;11313;50.116;8.424;2022-11-15T14:36:03;23.20;52.80
22290;DHT22;11313;50.116;8.424;2022-11-15T14:38:29;23.20;52.80
22290;DHT22;11313;50.116;8.424;2022-11-15T14:40:55;23.20;52.80
22290;DHT22;11313;50.116;8.424;2022-11-15T14:43:22;23.30;52.90
22290;DHT22;11313;50.116;8.424;2022-11-15T14:45:47;23.20;52.90
22290;DHT22;11313;50.116;8.424;2022-11-15T14:48:13;23.20;52.80
22290;DHT22;11313;50.116;8.424;2022-11-15T14:50:38;23.30;52.90
22290;DHT22;11313;50.116;8.424;2022-11-15T14:53:04;23.20;52.80
22290;DHT22;11313;50.116;8.424;2022-11-15T14:55:32;23.20;52.90
22290;DHT22;11313;50.116;8.424;2022-11-15T14:58:01;23.20;52.90
22290;DHT22;11313;50.116;8.424;2022-11-15T15:00:29;23.20;52.90
22290;DHT22;11313;50.116;8.424;2022-11-15T15:02:55;23.20;52.90
22290;DHT22;11313;50.116;8.424;2022-11-15T15:05:22;23.20;52.90
22290;DHT22;11313;50.116;8.424;2022-11-15T15:07:48;23.20;52.90
22290;DHT22;11313;50.116;8.424;2022-11-15T15:10:15;23.10;52.90
22290;DHT22;11313;50.116;8.424;2022-11-15T15:12:41;23.20;52.90
22290;DHT22;11313;50.116;8.424;2022-11-15T15:15:16;23.20;52.90
22290;DHT22;11313;50.116;8.424;2022-11-15T15:17:42;23.10;52.90
22290;DHT22;11313;50.116;8.424;2022-11-15T15:20:08;23.20;53.00
22290;DHT22;11313;50.116;8.424;2022-11-15T15:22:34;23.10;52.90
22290;DHT22;11313;50.116;8.424;2022-11-15T15:25:00;23.20;53.00
22290;DHT22;11313;50.116;8.424;2022-11-15T15:27:25;23.20;53.00
22290;DHT22;11313;50.116;8.424;2022-11-15T15:29:51;23.10;53.00
22290;DHT22;11313;50.116;8.424;2022-11-15T15:32:16;23.10;52.90
22290;DHT22;11313;50.116;8.424;2022-11-15T15:34:42;23.10;52.90
22290;DHT22;11313;50.116;8.424;2022-11-15T15:39:48;23.10;53.00
22290;DHT22;11313;50.116;8.424;2022-11-15T15:42:13;23.10;53.00
22290;DHT22;11313;50.116;8.424;2022-11-15T15:44:38;23.10;53.00
22290;DHT22;11313;50.116;8.424;2022-11-15T15:47:13;23.10;53.00
22290;DHT22;11313;50.116;8.424;2022-11-15T15:49:40;23.10;53.00
22290;DHT22;11313;50.116;8.424;2022-11-15T15:52:06;23.10;53.00
22290;DHT22;11313;50.116;8.424;2022-11-15T15:54:31;23.10;53.70
22290;DHT22;11313;50.116;8.424;2022-11-15T15:56:56;23.10;53.00
22290;DHT22;11313;50.116;8.424;2022-11-15T15:59:22;23.10;53.00
22290;DHT22;11313;50.116;8.424;2022-11-15T16:01:47;23.10;53.10
22290;DHT22;11313;50.116;8.424;2022-11-15T16:04:13;23.10;53.10
22290;DHT22;11313;50.116;8.424;2022-11-15T16:06:39;23.10;53.10
22290;DHT22;11313;50.116;8.424;2022-11-15T16:09:13;23.10;53.10
22290;DHT22;11313;50.116;8.424;2022-11-15T16:11:39;23.10;53.10
22290;DHT22;11313;50.116;8.424;2022-11-15T16:14:04;23.10;53.10
22290;DHT22;11313;50.116;8.424;2022-11-15T16:16:30;23.10;53.10
22290;DHT22;11313;50.116;8.424;2022-11-15T16:18:55;23.10;53.10
22290;DHT22;11313;50.116;8.424;2022-11-15T16:21:21;23.10;53.10
22290;DHT22;11313;50.116;8.424;2022-11-15T16:23:46;23.10;53.10
22290;DHT22;11313;50.116;8.424;2022-11-15T16:26:21;23.10;53.10
22290;DHT22;11313;50.116;8.424;2022-11-15T16:28:47;23.10;53.10
22290;DHT22;11313;50.116;8.424;2022-11-15T16:31:13;23.10;53.10
22290;DHT22;11313;50.116;8.424;2022-11-15T16:33:39;23.10;53.10
22290;DHT22;11313;50.116;8.424;2022-11-15T16:36:10;23.10;53.10
22290;DHT22;11313;50.116;8.424;2022-11-15T16:38:37;23.10;53.10
22290;DHT22;11313;50.116;8.424;2022-11-15T16:41:04;23.10;53.10
22290;DHT22;11313;50.116;8.424;2022-11-15T16:43:29;23.10;53.10
22290;DHT22;11313;50.116;8.424;2022-11-15T16:45:55;23.10;53.00
22290;DHT22;11313;50.116;8.424;2022-11-15T16:48:23;23.10;53.10
22290;DHT22;11313;50.116;8.424;2022-11-15T16:50:49;23.10;53.10
22290;DHT22;11313;50.116;8.424;2022-11-15T16:53:15;23.10;53.00
22290;DHT22;11313;50.116;8.424;2022-11-15T16:55:40;23.10;53.00
22290;DHT22;11313;50.116;8.424;2022-11-15T16:58:08;23.10;53.00
22290;DHT22;11313;50.116;8.424;2022-11-15T17:00:34;23.10;53.00
22290;DHT22;11313;50.116;8.424;2022-11-15T17:02:59;23.10;53.00
22290;DHT22;11313;50.116;8.424;2022-11-15T17:05:25;23.10;53.00
22290;DHT22;11313;50.116;8.424;2022-11-15T17:07:52;23.10;53.00
22290;DHT22;11313;50.116;8.424;2022-11-15T17:10:19;23.10;52.90
22290;DHT22;11313;50.116;8.424;2022-11-15T17:12:45;23.20;53.00
22290;DHT22;11313;50.116;8.424;2022-11-15T17:15:12;23.20;53.00
22290;DHT22;11313;50.116;8.424;2022-11-15T17:17:37;23.10;52.90
22290;DHT22;11313;50.116;8.424;2022-11-15T17:20:04;23.20;53.00
22290;DHT22;11313;50.116;8.424;2022-11-15T17:22:34;23.20;52.90
22290;DHT22;11313;50.116;8.424;2022-11-15T17:25:00;23.20;53.00
22290;DHT22;11313;50.116;8.424;2022-11-15T17:27:25;23.10;52.90
22290;DHT22;11313;50.116;8.424;2022-11-15T17:29:51;23.20;52.90
22290;DHT22;11313;50.116;8.424;2022-11-15T17:32:17;23.20;52.90
22290;DHT22;11313;50.116;8.424;2022-11-15T17:34:42;23.20;53.00
22290;DHT22;11313;50.116;8.424;2022-11-15T17:37:08;23.20;52.90
22290;DHT22;11313;50.116;8.424;2022-11-15T17:39:33;23.20;52.90
22290;DHT22;11313;50.116;8.424;2022-11-15T17:41:59;23.20;52.90
22290;DHT22;11313;50.116;8.424;2022-11-15T17:44:24;23.20;52.90
22290;DHT22;11313;50.116;8.424;2022-11-15T17:46:50;23.20;52.90
22290;DHT22;11313;50.116;8.424;2022-11-15T17:49:15;23.20;52.90